Time;durP1;ratioP1;P1;durP2;ratioP2;P2;SDS_P1;SDS_P2;PMS_P1;PMS_P2;Temp;Humidity;BMP_temperature;BMP_pressure;BME280_temperature;BME280_humidity;BME280_pressure;Samples;Min_cycle;Max_cycle;Signal;HPM_P1;HPM_P2
2022/07/15 00:02:31;;;;;;;6.07;1.30;;;;;;;11.05;100.00;96805.75;10414711;28;20262;-71
2022/07/15 00:07:31;;;;;;;7.93;1.30;;;;;;;11.01;100.00;96802.63;10414876;28;20219;-71
2022/07/15 00:12:32;;;;;;;1.58;1.05;;;;;;;11.05;100.00;96803.94;10415000;28;20664;-71
2022/07/15 00:17:32;;;;;;;2.53;1.15;;;;;;;11.02;100.00;96814.75;10414051;28;20220;-71
2022/07/15 00:22:32;;;;;;;2.67;1.00;;;;;;;11.16;100.00;96807.25;10414545;28;20582;-71
2022/07/15 00:27:33;;;;;;;2.50;0.98;;;;;;;10.95;100.00;96815.53;10413843;28;20220;-71
2022/07/15 00:32:33;;;;;;;6.53;1.15;;;;;;;11.04;99.45;96804.94;10414668;28;20184;-71
2022/07/15 00:37:34;;;;;;;6.70;1.15;;;;;;;10.86;100.00;96814.69;10412598;28;20688;-71
2022/07/15 00:42:44;;;;;;;2.92;1.20;;;;;;;10.78;100.00;96809.38;10414268;28;20213;-71
2022/07/15 00:47:48;;;;;;;4.70;1.20;;;;;;;10.54;100.00;96810.88;10395536;28;20287;-71
2022/07/15 00:52:58;;;;;;;3.05;1.10;;;;;;;10.33;100.00;96811.22;10413322;28;20266;-71
2022/07/15 00:58:03;;;;;;;3.92;1.30;;;;;;;10.26;100.00;96810.97;10412674;28;20226;-71
2022/07/15 01:03:04;;;;;;;5.03;1.95;;;;;;;10.16;100.00;96818.09;10395169;28;20248;-70
2022/07/15 01:08:05;;;;;;;4.60;1.20;;;;;;;10.08;100.00;96810.19;10412308;28;20205;-71
2022/07/15 01:13:05;;;;;;;1.20;1.10;;;;;;;9.77;100.00;96818.38;10412707;28;20219;-70
2022/07/15 01:18:06;;;;;;;8.07;1.60;;;;;;;9.24;100.00;96830.41;10394422;28;20270;-71
2022/07/15 01:23:12;;;;;;;4.93;1.87;;;;;;;8.90;100.00;96842.25;10394105;28;20211;-71
2022/07/15 01:28:17;;;;;;;3.90;1.87;;;;;;;8.88;100.00;96825.91;10393701;28;20242;-70
2022/07/15 01:33:18;;;;;;;3.57;1.80;;;;;;;8.86;100.00;96837.44;10394149;28;20227;-70
2022/07/15 01:38:18;;;;;;;5.77;2.27;;;;;;;8.82;100.00;96847.38;10392568;28;20244;-71
2022/07/15 01:43:21;;;;;;;2.37;1.70;;;;;;;8.83;100.00;96843.75;10393710;28;20231;-70
2022/07/15 01:54:07;;;;;;;5.43;1.73;;;;;;;8.42;100.00;96853.56;10410783;28;20193;-70
2022/07/15 01:59:08;;;;;;;7.13;2.10;;;;;;;8.33;100.00;96865.69;10391777;28;20297;-71
2022/07/15 02:04:09;;;;;;;2.67;1.50;;;;;;;8.50;100.00;96858.97;10392572;28;20232;-70
2022/07/15 02:09:10;;;;;;;6.87;1.80;;;;;;;8.50;100.00;96863.34;10392057;28;20208;-70
2022/07/15 02:14:15;;;;;;;5.77;1.40;;;;;;;8.52;100.00;96864.06;10392512;28;20187;-70
2022/07/15 02:19:17;;;;;;;2.83;1.80;;;;;;;8.53;100.00;96865.69;10391922;28;20294;-70
2022/07/15 02:24:19;;;;;;;1.93;1.43;;;;;;;8.50;100.00;96865.97;10409496;28;20603;-70
2022/07/15 02:29:19;;;;;;;4.97;1.70;;;;;;;8.54;100.00;96869.94;10409603;28;20227;-70
2022/07/15 02:34:20;;;;;;;6.83;1.50;;;;;;;8.64;100.00;96868.16;10390827;28;20668;-71
2022/07/15 02:39:20;;;;;;;3.30;1.50;;;;;;;8.62;100.00;96871.88;10391393;28;20227;-70
2022/07/15 02:44:21;;;;;;;8.07;1.70;;;;;;;8.67;100.00;96864.44;10391252;28;20197;-70
2022/07/15 02:49:23;;;;;;;2.50;1.60;;;;;;;8.56;100.00;96868.03;10390868;28;20185;-71
2022/07/15 02:54:24;;;;;;;2.80;1.80;;;;;;;8.47;100.00;96871.47;10391026;28;20577;-71
2022/07/15 02:59:25;;;;;;;4.40;1.60;;;;;;;8.68;100.00;96874.75;10390267;28;20192;-70
2022/07/15 03:04:28;;;;;;;1.50;1.40;;;;;;;8.57;100.00;96867.06;10387325;28;20237;-71
2022/07/15 03:09:29;;;;;;;2.70;1.60;;;;;;;8.51;100.00;96868.44;10384044;28;20216;-70
2022/07/15 03:14:29;;;;;;;1.57;1.47;;;;;;;8.53;100.00;96873.50;10366976;28;20618;-70
2022/07/15 03:19:29;;;;;;;3.13;1.70;;;;;;;8.54;100.00;96872.56;10382947;28;20184;-70
2022/07/15 03:24:30;;;;;;;5.20;2.10;;;;;;;8.36;100.00;96888.91;10383053;28;20280;-71
2022/07/15 03:29:32;;;;;;;2.80;1.60;;;;;;;8.27;100.00;96883.69;10383011;28;20192;-71
2022/07/15 03:34:32;;;;;;;2.77;1.60;;;;;;;8.30;100.00;96888.63;10382042;28;20573;-70
2022/07/15 03:39:34;;;;;;;2.80;1.70;;;;;;;8.22;100.00;96891.91;10382875;28;20735;-70
2022/07/15 03:44:34;;;;;;;4.07;1.87;;;;;;;8.25;100.00;96896.88;10382898;28;20189;-70
2022/07/15 03:49:35;;;;;;;5.07;1.80;;;;;;;8.16;100.00;96898.53;10365978;28;20660;-70
2022/07/15 03:54:36;;;;;;;3.73;1.60;;;;;;;8.18;100.00;96907.03;10366115;28;20279;-70
2022/07/15 03:59:36;;;;;;;3.77;1.70;;;;;;;8.25;100.00;96911.72;10381615;28;20315;-70
2022/07/15 04:04:37;;;;;;;3.90;1.87;;;;;;;8.48;100.00;96920.13;10388496;28;20327;-71
2022/07/15 04:09:37;;;;;;;6.20;1.83;;;;;;;8.87;100.00;96922.69;10389539;28;20215;-71
2022/07/15 04:14:37;;;;;;;4.60;1.60;;;;;;;9.00;100.00;96933.66;10389206;28;20193;-70
2022/07/15 04:19:38;;;;;;;6.10;1.73;;;;;;;9.46;100.00;96937.25;10391662;28;20219;-70
2022/07/15 04:24:39;;;;;;;4.03;1.63;;;;;;;10.03;100.00;96931.03;10414788;28;20616;-71
2022/07/15 04:29:43;;;;;;;6.80;2.20;;;;;;;10.46;100.00;96932.13;10396063;28;20227;-71
2022/07/15 04:34:45;;;;;;;6.43;1.70;;;;;;;10.77;100.00;96938.78;10380204;28;20213;-71
2022/07/15 04:39:46;;;;;;;3.87;1.57;;;;;;;11.07;100.00;96940.94;10396134;28;20600;-71
2022/07/15 04:44:47;;;;;;;3.55;1.63;;;;;;;11.21;100.00;96931.69;10395843;28;20193;-71
2022/07/15 04:55:10;;;;;;;4.43;1.90;;;;;;;11.33;100.00;96948.00;10395720;28;20213;-70
2022/07/15 05:00:10;;;;;;;4.10;1.85;;;;;;;11.47;100.00;96953.63;10394784;28;20724;-71
2022/07/15 05:05:13;;;;;;;3.72;1.80;;;;;;;11.72;100.00;96960.63;10395111;28;20866;-72
2022/07/15 05:10:13;;;;;;;3.55;1.58;;;;;;;12.03;100.00;96964.56;10394605;28;20257;-70
2022/07/15 05:15:20;;;;;;;2.55;1.33;;;;;;;12.24;100.00;96970.19;10395057;28;20247;-71
2022/07/15 05:20:21;;;;;;;7.47;1.88;;;;;;;12.37;100.00;96967.09;10394329;28;20195;-71
2022/07/15 05:25:24;;;;;;;4.18;1.80;;;;;;;12.56;100.00;96970.44;10394254;28;20200;-71
2022/07/15 05:30:25;;;;;;;5.13;2.00;;;;;;;12.73;100.00;96979.16;10410487;28;20191;-71
2022/07/15 05:35:29;;;;;;;6.38;1.73;;;;;;;12.83;100.00;96972.75;10393493;28;20209;-71
2022/07/15 05:40:30;;;;;;;5.70;1.83;;;;;;;12.99;100.00;96986.88;10393414;28;20184;-71
2022/07/15 05:45:30;;;;;;;7.07;1.50;;;;;;;12.89;100.00;96978.31;10376389;28;20181;-71
2022/07/15 05:50:36;;;;;;;10.05;1.75;;;;;;;12.95;100.00;96975.84;10393393;28;20234;-71
2022/07/15 05:55:37;;;;;;;6.40;1.55;;;;;;;13.15;100.00;96983.41;10392945;28;20278;-71
2022/07/15 06:00:39;;;;;;;6.55;1.98;;;;;;;12.92;100.00;96994.59;10392615;28;20181;-71
2022/07/15 06:05:39;;;;;;;5.07;1.48;;;;;;;13.35;99.29;96984.75;10392618;28;20282;-71
2022/07/15 06:10:41;;;;;;;5.82;1.52;;;;;;;13.24;99.77;96987.66;10409939;28;20315;-71
2022/07/15 06:15:41;;;;;;;7.72;1.85;;;;;;;12.75;100.00;97012.16;10392577;28;20226;-71
2022/07/15 06:20:46;;;;;;;9.18;1.73;;;;;;;12.92;100.00;97014.81;10391836;28;20192;-71
2022/07/15 06:25:47;;;;;;;3.72;1.33;;;;;;;13.12;100.00;97004.78;10391848;28;20631;-71
2022/07/15 06:30:47;;;;;;;6.47;1.85;;;;;;;13.36;96.33;96996.88;10392207;28;20197;-71
2022/07/15 06:35:47;;;;;;;3.47;1.30;;;;;;;13.45;95.87;96991.63;10391174;28;20286;-71
2022/07/15 06:40:49;;;;;;;7.72;1.38;;;;;;;13.34;97.37;97005.97;10408692;28;20215;-71
2022/07/15 06:45:49;;;;;;;5.07;1.58;;;;;;;13.59;96.93;97003.28;10391362;28;20195;-71
2022/07/15 06:50:51;;;;;;;8.50;1.88;;;;;;;13.91;95.16;96994.47;10391174;28;20275;-71
2022/07/15 06:55:52;;;;;;;3.25;1.33;;;;;;;13.70;94.57;97010.81;10409091;28;20220;-71
2022/07/15 07:00:52;;;;;;;5.43;1.67;;;;;;;13.34;94.80;97003.34;10390809;28;20288;-71
2022/07/15 07:05:53;;;;;;;4.20;1.50;;;;;;;14.03;92.39;97000.19;10391213;28;20243;-71
2022/07/15 07:10:53;;;;;;;4.35;1.60;;;;;;;14.42;89.29;96986.94;10373982;28;20655;-71
2022/07/15 07:15:54;;;;;;;4.90;1.83;;;;;;;14.39;88.95;96991.75;10408273;28;20813;-71
2022/07/15 07:20:56;;;;;;;4.93;1.50;;;;;;;14.75;85.66;96976.22;10407956;28;20687;-71
2022/07/15 07:25:57;;;;;;;3.33;1.10;;;;;;;14.53;84.71;96972.56;10407661;28;20276;-71
2022/07/15 07:30:59;;;;;;;3.67;1.23;;;;;;;13.86;85.27;96975.72;10408084;28;20197;-71
2022/07/15 07:35:59;;;;;;;4.97;1.25;;;;;;;14.02;84.71;96978.25;10406760;28;20220;-71
2022/07/15 07:41:00;;;;;;;6.28;1.50;;;;;;;14.58;82.26;96966.78;10389973;28;20196;-71
2022/07/15 07:46:01;;;;;;;4.40;1.30;;;;;;;13.16;84.66;96990.31;10407847;28;20177;-71
2022/07/15 07:51:01;;;;;;;2.78;1.10;;;;;;;13.74;81.66;96954.19;10407262;28;20189;-71
2022/07/15 07:56:03;;;;;;;2.72;1.15;;;;;;;14.08;79.34;96931.97;10412729;28;20247;-71
2022/07/15 08:01:03;;;;;;;5.18;1.25;;;;;;;15.14;76.05;96897.91;10415520;28;20196;-71
2022/07/15 08:06:04;;;;;;;4.78;1.30;;;;;;;16.13;72.33;96867.66;10414643;28;20251;-72
2022/07/15 08:11:04;;;;;;;2.05;0.90;;;;;;;17.01;69.61;96846.25;10414849;28;20193;-71
2022/07/15 08:16:06;;;;;;;3.95;1.25;;;;;;;15.44;67.56;96793.13;10415004;28;20224;-72
2022/07/15 08:21:06;;;;;;;3.45;1.10;;;;;;;17.35;65.79;96803.06;10396717;28;20599;-71
2022/07/15 08:26:08;;;;;;;3.15;1.27;;;;;;;17.80;63.70;96789.34;10414689;28;20190;-72
2022/07/15 08:31:09;;;;;;;4.25;0.93;;;;;;;19.58;57.98;96726.66;10396580;28;20258;-72
2022/07/15 08:36:09;;;;;;;7.10;1.67;;;;;;;17.41;62.39;96774.97;10395911;28;20628;-71
2022/07/15 08:41:10;;;;;;;4.70;1.10;;;;;;;16.86;63.21;96782.81;10413710;28;20204;-72
2022/07/15 08:46:11;;;;;;;3.60;1.00;;;;;;;18.44;61.86;96792.53;10396472;28;20192;-71
2022/07/15 08:51:11;;;;;;;7.90;1.27;;;;;;;18.40;58.25;96715.16;10395432;28;20193;-72
2022/07/15 08:56:12;;;;;;;3.30;0.88;;;;;;;20.51;53.35;96665.81;10413347;28;20712;-72
2022/07/15 09:01:12;;;;;;;2.75;1.00;;;;;;;20.81;51.14;96632.09;10413189;28;20203;-72
2022/07/15 09:06:33;;;;;;;5.45;1.35;;;;;;;21.52;49.73;96629.72;10412337;28;20224;-72
2022/07/15 09:11:33;;;;;;;2.63;1.08;;;;;;;21.84;48.32;96618.78;10412978;28;20637;-72
2022/07/15 09:16:33;;;;;;;2.75;1.08;;;;;;;20.43;50.25;96640.31;10412267;28;20227;-72
2022/07/15 09:21:34;;;;;;;3.30;1.10;;;;;;;19.18;52.98;96682.50;10412161;28;20196;-71
2022/07/15 09:26:37;;;;;;;3.45;1.20;;;;;;;19.37;54.02;96725.13;10394320;28;20275;-72
2022/07/15 09:36:57;;;;;;;2.28;0.98;;;;;;;18.91;54.83;96729.59;10411058;28;20252;-72
2022/07/15 09:42:06;;;;;;;3.65;1.20;;;;;;;16.99;59.23;96772.34;10411874;28;20204;-72
2022/07/15 09:47:15;;;;;;;3.13;1.10;;;;;;;18.18;57.40;96776.38;10411204;28;20195;-72
2022/07/15 09:52:16;;;;;;;5.13;1.42;;;;;;;18.44;56.21;96748.22;10411384;28;20636;-72
2022/07/15 09:57:18;;;;;;;4.32;1.20;;;;;;;17.68;58.58;96791.75;10393082;28;20227;-72
2022/07/15 10:02:18;;;;;;;6.75;1.33;;;;;;;17.44;59.43;96816.94;10410537;28;20200;-71
2022/07/15 10:07:19;;;;;;;6.85;1.40;;;;;;;17.94;59.10;96820.19;10410252;28;20208;-72
2022/07/15 10:12:21;;;;;;;5.25;1.10;;;;;;;19.19;54.57;96742.56;10393385;28;20189;-72
2022/07/15 10:17:50;;;;;;;4.60;1.48;;;;;;;18.54;56.16;96766.38;10391273;28;20256;-72
2022/07/15 10:23:12;;;;;;;3.92;1.33;;;;;;;18.31;57.74;96793.31;10410088;28;20200;-72
2022/07/15 10:28:15;;;;;;;3.35;1.30;;;;;;;18.44;55.46;96734.16;10391930;28;20657;-72
2022/07/15 10:33:17;;;;;;;6.45;1.58;;;;;;;19.48;54.47;96758.16;10391627;28;20546;-72
2022/07/15 10:38:32;;;;;;;6.32;1.77;;;;;;;18.92;57.85;96807.41;10408829;28;20254;-72
2022/07/15 10:43:40;;;;;;;2.25;1.70;;;;;;;19.30;53.98;96733.13;10391560;28;20660;-72
2022/07/15 10:48:40;;;;;;;3.83;1.73;;;;;;;20.23;51.62;96699.84;10390856;28;20275;-72
2022/07/15 10:53:47;;;;;;;3.13;1.75;;;;;;;19.58;53.19;96722.13;10391804;28;20192;-72
2022/07/15 10:59:07;;;;;;;3.63;1.95;;;;;;;19.38;53.52;96724.91;10390205;28;20274;-72
2022/07/15 11:04:17;;;;;;;9.18;1.92;;;;;;;19.73;53.00;96723.69;10408581;28;20236;-72
2022/07/15 11:09:44;;;;;;;2.45;1.73;;;;;;;19.57;52.75;96709.91;10390193;28;20212;-72
2022/07/15 11:14:57;;;;;;;4.60;1.92;;;;;;;18.75;52.21;96675.09;10408168;28;20204;-72
2022/07/15 11:20:08;;;;;;;4.40;1.88;;;;;;;19.62;51.17;96674.72;10370041;28;20205;-72
2022/07/15 11:25:31;;;;;;;3.97;1.90;;;;;;;19.40;52.15;96701.63;10366386;28;20660;-72
2022/07/15 11:30:54;;;;;;;5.25;1.52;;;;;;;20.00;50.82;96679.16;10369813;28;20201;-72
2022/07/15 11:36:00;;;;;;;4.72;1.70;;;;;;;20.12;51.78;96690.72;10375362;28;20236;-72
2022/07/15 11:46:23;;;;;;;4.45;1.60;;;;;;;20.28;48.94;96630.81;10374161;28;20228;-72
2022/07/15 11:51:29;;;;;;;8.15;1.65;;;;;;;19.59;50.57;96649.38;10374521;28;20193;-71
2022/07/15 11:56:30;;;;;;;2.00;1.50;;;;;;;19.97;49.32;96637.06;10374867;28;20575;-72
2022/07/15 12:01:30;;;;;;;2.45;1.50;;;;;;;20.78;48.43;96645.03;10372592;28;20208;-72
2022/07/15 12:06:32;;;;;;;2.25;1.40;;;;;;;21.81;44.06;96535.75;10373263;28;20271;-72
2022/07/15 12:11:36;;;;;;;6.10;1.58;;;;;;;22.01;48.31;96685.59;10374047;28;20189;-72
2022/07/15 12:16:45;;;;;;;8.55;1.50;;;;;;;20.21;52.17;96720.50;10373681;28;20225;-72
2022/07/15 12:21:54;;;;;;;3.60;1.50;;;;;;;19.84;53.30;96744.31;10373215;28;20204;-72
2022/07/15 12:26:54;;;;;;;5.90;1.92;;;;;;;20.59;48.92;96641.56;10373308;28;20193;-72
2022/07/15 12:32:04;;;;;;;2.30;1.30;;;;;;;20.89;49.51;96668.28;10373423;28;20189;-72
2022/07/15 12:37:04;;;;;;;3.10;1.42;;;;;;;22.22;45.02;96584.66;10370912;28;20607;-72
2022/07/15 12:42:05;;;;;;;6.82;1.30;;;;;;;21.87;47.33;96642.31;10372837;28;20291;-72
2022/07/15 12:47:06;;;;;;;8.35;1.80;;;;;;;22.73;46.22;96643.72;10372294;28;20196;-72
2022/07/15 12:52:24;;;;;;;5.20;1.40;;;;;;;21.96;45.08;96583.28;10355451;28;20221;-72
2022/07/15 12:57:34;;;;;;;3.63;1.40;;;;;;;19.73;49.31;96631.47;10354045;28;20245;-72
2022/07/15 13:02:58;;;;;;;2.58;1.25;;;;;;;20.80;47.92;96629.66;10372949;28;20229;-72
2022/07/15 13:07:59;;;;;;;5.95;1.52;;;;;;;21.88;45.18;96566.59;10378795;28;20213;-72
2022/07/15 13:13:00;;;;;;;2.47;1.20;;;;;;;23.15;41.27;96501.84;10361052;28;20552;-72
2022/07/15 13:18:00;;;;;;;2.85;1.10;;;;;;;23.53;41.78;96528.91;10375861;28;20339;-71
2022/07/15 13:23:01;;;;;;;4.28;1.30;;;;;;;22.41;43.11;96538.13;10371985;28;20544;-72
2022/07/15 13:28:02;;;;;;;3.33;1.20;;;;;;;21.41;46.86;96619.84;10373340;28;20194;-71
2022/07/15 13:33:03;;;;;;;7.55;1.42;;;;;;;21.62;45.77;96599.03;10373317;28;20201;-71
2022/07/15 13:38:03;;;;;;;6.80;1.10;;;;;;;20.87;46.31;96586.97;10371555;28;20700;-72
2022/07/15 13:43:04;;;;;;;2.70;1.20;;;;;;;22.51;45.48;96617.63;10371234;28;20580;-72
2022/07/15 13:48:04;;;;;;;1.75;1.23;;;;;;;22.42;42.26;96504.25;10372086;28;20193;-72
2022/07/15 13:53:05;;;;;;;4.10;1.40;;;;;;;22.44;43.36;96531.50;10389498;28;20189;-72
2022/07/15 13:58:05;;;;;;;4.53;1.33;;;;;;;22.69;44.53;96587.25;10403244;28;20221;-72
2022/07/15 14:03:06;;;;;;;3.55;1.23;;;;;;;25.74;39.00;96536.81;10393716;28;20304;-72
2022/07/15 14:08:07;;;;;;;2.10;1.23;;;;;;;26.86;35.88;96447.03;10374396;28;20543;-72
2022/07/15 14:13:07;;;;;;;3.80;1.20;;;;;;;26.79;36.68;96482.25;10368699;28;20197;-72
2022/07/15 14:18:08;;;;;;;3.17;1.50;;;;;;;23.53;41.53;96523.56;10370852;28;20231;-72
2022/07/15 14:23:08;;;;;;;3.95;1.20;;;;;;;26.64;37.62;96511.75;10387599;28;20204;-72
2022/07/15 14:28:08;;;;;;;3.90;1.10;;;;;;;27.87;35.61;96493.03;10371408;28;20586;-72
2022/07/15 14:33:09;;;;;;;7.57;1.40;;;;;;;28.72;33.41;96444.75;10368708;28;20800;-72
2022/07/15 14:38:10;;;;;;;3.13;1.30;;;;;;;27.06;34.63;96414.00;10350857;28;20275;-72
2022/07/15 14:43:11;;;;;;;5.65;1.48;;;;;;;25.84;36.93;96447.53;10368694;28;20936;-72
2022/07/15 14:48:11;;;;;;;3.05;1.20;;;;;;;25.75;36.51;96449.88;10350278;28;20189;-72
2022/07/15 14:53:12;;;;;;;4.97;1.77;;;;;;;24.95;39.29;96500.72;10368407;28;20276;-72
2022/07/15 14:58:13;;;;;;;2.80;1.20;;;;;;;24.92;38.74;96496.69;10367918;28;20483;-72
2022/07/15 15:03:13;;;;;;;3.15;1.23;;;;;;;25.99;37.02;96477.16;10368030;28;20241;-72
2022/07/15 15:08:14;;;;;;;1.60;0.87;;;;;;;27.76;34.21;96454.56;10367392;28;20570;-72
2022/07/15 15:13:14;;;;;;;6.13;1.50;;;;;;;24.91;37.70;96447.63;10368179;28;20912;-72
2022/07/15 15:18:14;;;;;;;3.42;1.20;;;;;;;23.93;39.96;96511.88;10366986;28;20833;-72
2022/07/15 15:23:15;;;;;;;3.33;1.30;;;;;;;22.41;41.92;96530.13;10367337;28;20197;-72
2022/07/15 15:28:15;;;;;;;2.30;1.25;;;;;;;23.36;41.61;96547.63;10367248;28;20520;-72
2022/07/15 15:33:15;;;;;;;6.37;1.40;;;;;;;25.13;38.54;96521.81;10366989;28;20197;-72
2022/07/15 15:38:16;;;;;;;5.87;1.67;;;;;;;26.31;36.52;96498.50;10366780;28;20555;-72
2022/07/15 15:43:16;;;;;;;4.53;1.30;;;;;;;25.43;37.22;96481.06;10367485;28;20458;-72
2022/07/15 15:48:16;;;;;;;6.90;1.20;;;;;;;26.70;35.99;96479.28;10366378;28;20456;-71
2022/07/15 15:53:17;;;;;;;1.70;1.10;;;;;;;26.73;35.74;96487.91;10366888;28;20205;-72
2022/07/15 15:58:17;;;;;;;2.08;1.00;;;;;;;25.53;37.27;96463.41;10366468;28;20480;-72
2022/07/15 16:03:18;;;;;;;4.40;1.30;;;;;;;25.54;36.55;96449.75;10366701;28;20275;-72
2022/07/15 16:08:18;;;;;;;4.22;1.35;;;;;;;22.74;40.66;96464.53;10366446;28;20724;-72
2022/07/15 16:13:19;;;;;;;3.17;1.40;;;;;;;23.19;40.34;96481.59;10390643;28;20637;-72
2022/07/15 16:18:19;;;;;;;5.93;1.50;;;;;;;22.88;40.77;96474.91;10413824;28;20588;-72
2022/07/15 16:23:19;;;;;;;4.38;1.83;;;;;;;21.81;43.06;96514.44;10414883;28;20192;-72
2022/07/15 16:28:20;;;;;;;6.03;1.45;;;;;;;21.07;45.02;96554.75;10396530;28;20197;-72
2022/07/15 16:33:20;;;;;;;4.40;1.23;;;;;;;21.77;43.49;96534.59;10414095;28;20185;-72
2022/07/15 16:38:21;;;;;;;5.80;1.40;;;;;;;21.18;43.63;96512.16;10413766;28;20224;-72
2022/07/15 16:43:21;;;;;;;3.22;1.23;;;;;;;22.16;43.47;96548.25;10414365;28;20738;-71
2022/07/15 16:48:22;;;;;;;2.97;1.00;;;;;;;21.84;42.70;96520.09;10412941;28;20254;-71
2022/07/15 16:53:22;;;;;;;4.90;1.45;;;;;;;20.43;44.62;96512.56;10396238;28;20197;-72
2022/07/15 16:58:22;;;;;;;2.38;0.98;;;;;;;20.97;44.63;96548.09;10413302;28;20216;-71
2022/07/15 17:03:23;;;;;;;4.32;1.20;;;;;;;20.41;45.57;96562.53;10413388;28;20283;-72
2022/07/15 17:08:23;;;;;;;3.22;1.20;;;;;;;19.99;45.94;96549.09;10412889;28;20310;-71
2022/07/15 17:13:23;;;;;;;5.85;1.30;;;;;;;19.87;46.57;96567.59;10412988;28;20189;-72
2022/07/15 17:18:25;;;;;;;7.93;2.47;;;;;;;19.87;46.78;96587.00;10412214;28;20216;-71
2022/07/15 17:23:28;;;;;;;5.90;1.70;;;;;;;19.58;47.50;96591.91;10412545;28;20238;-71
2022/07/15 17:28:28;;;;;;;5.38;1.63;;;;;;;19.66;47.52;96605.97;10394269;28;20192;-71
2022/07/15 17:33:29;;;;;;;4.47;1.40;;;;;;;18.66;49.26;96616.13;10393816;28;20212;-72
2022/07/15 17:38:29;;;;;;;6.50;1.42;;;;;;;18.53;50.17;96648.84;10393713;28;20213;-71
2022/07/15 17:43:30;;;;;;;1.98;1.05;;;;;;;18.57;49.59;96641.25;10410433;28;20195;-72
2022/07/15 17:48:31;;;;;;;5.85;1.40;;;;;;;18.53;50.24;96650.69;10410652;28;20311;-71
2022/07/15 17:53:31;;;;;;;2.03;1.02;;;;;;;18.42;50.68;96652.13;10411139;28;20295;-72
2022/07/15 17:58:31;;;;;;;4.90;1.20;;;;;;;18.05;51.89;96665.03;10410229;28;20228;-71
2022/07/15 18:03:32;;;;;;;5.53;1.40;;;;;;;17.93;51.83;96686.06;10410339;28;20667;-71
2022/07/15 18:08:32;;;;;;;4.20;1.10;;;;;;;17.75;52.95;96702.50;10409661;28;20221;-71
2022/07/15 18:13:33;;;;;;;6.30;1.58;;;;;;;17.67;52.49;96697.38;10410386;28;20346;-71
2022/07/15 18:18:34;;;;;;;3.55;1.17;;;;;;;17.06;54.00;96704.38;10408999;28;20228;-71
2022/07/15 18:23:34;;;;;;;5.93;1.52;;;;;;;16.91;54.29;96712.44;10409915;28;20196;-71
2022/07/15 18:28:34;;;;;;;3.03;1.17;;;;;;;16.74;55.10;96735.75;10409083;28;20196;-71
2022/07/15 18:33:35;;;;;;;6.57;1.38;;;;;;;16.65;55.56;96747.47;10408714;28;20560;-71
2022/07/15 18:38:35;;;;;;;3.75;1.00;;;;;;;16.44;56.10;96763.41;10408651;28;20220;-71
2022/07/15 18:43:38;;;;;;;3.22;1.30;;;;;;;16.25;57.56;96783.38;10408677;28;20193;-71
2022/07/15 18:48:39;;;;;;;5.05;1.48;;;;;;;16.01;57.78;96785.44;10409004;28;20268;-71
2022/07/15 18:53:39;;;;;;;3.38;1.25;;;;;;;15.68;59.15;96821.03;10408547;28;20747;-71
2022/07/15 18:58:42;;;;;;;3.42;1.35;;;;;;;15.43;60.65;96846.13;10408255;28;20282;-71
2022/07/15 19:03:43;;;;;;;3.10;1.08;;;;;;;15.21;62.27;96869.78;10408280;28;20244;-71
2022/07/15 19:08:43;;;;;;;5.78;1.35;;;;;;;14.73;63.08;96874.53;10408031;28;20233;-71
2022/07/15 19:13:43;;;;;;;4.10;1.55;;;;;;;14.48;63.93;96882.63;10408399;28;20195;-71
2022/07/15 19:18:44;;;;;;;4.70;1.60;;;;;;;14.14;66.47;96930.47;10407413;28;20228;-71
2022/07/15 19:23:45;;;;;;;7.80;1.42;;;;;;;13.39;68.65;96951.00;10407896;28;20275;-71
2022/07/15 19:28:45;;;;;;;10.82;1.48;;;;;;;12.47;73.60;97015.06;10407757;28;20193;-71
2022/07/15 19:33:46;;;;;;;5.38;1.23;;;;;;;12.00;76.15;96999.81;10407375;28;20189;-70
2022/07/15 19:38:46;;;;;;;3.00;1.30;;;;;;;11.95;77.80;96996.88;10407717;28;20688;-70
2022/07/15 19:43:46;;;;;;;12.57;1.65;;;;;;;11.78;78.66;96986.25;10407273;28;20722;-70
2022/07/15 19:48:47;;;;;;;2.60;1.10;;;;;;;11.94;79.74;96989.97;10407305;28;20558;-71
2022/07/15 19:53:47;;;;;;;3.65;1.80;;;;;;;11.97;80.10;96983.56;10415210;28;20189;-72
2022/07/15 19:58:48;;;;;;;6.30;2.03;;;;;;;12.00;81.91;96994.56;10414802;28;20223;-72
2022/07/15 20:03:48;;;;;;;4.18;1.83;;;;;;;11.84;82.98;96995.31;10415524;28;20236;-70
2022/07/15 20:08:48;;;;;;;8.35;2.53;;;;;;;11.87;83.89;97004.69;10414595;28;20295;-71
2022/07/15 20:13:49;;;;;;;7.57;2.47;;;;;;;11.73;84.18;96999.03;10415426;28;20247;-71
2022/07/15 20:18:49;;;;;;;6.82;2.25;;;;;;;11.78;84.18;96994.13;10414529;28;20220;-71
2022/07/15 20:23:49;;;;;;;5.35;1.90;;;;;;;11.66;85.37;96998.00;10414726;28;20279;-71
2022/07/15 20:28:50;;;;;;;7.30;1.92;;;;;;;11.60;85.08;96983.69;10414367;28;20552;-71
2022/07/15 20:33:50;;;;;;;6.10;2.25;;;;;;;11.53;85.31;96987.09;10413731;28;20192;-71
2022/07/15 20:38:51;;;;;;;3.40;1.70;;;;;;;11.45;85.85;96980.00;10414071;28;20224;-71
2022/07/15 20:43:51;;;;;;;5.18;1.70;;;;;;;11.41;86.10;96982.13;10413560;28;20188;-71
2022/07/15 20:48:52;;;;;;;4.03;1.87;;;;;;;11.34;86.72;96988.97;10413659;28;20546;-72
2022/07/15 20:53:52;;;;;;;3.67;1.73;;;;;;;11.33;87.11;96983.88;10413144;28;20718;-71
2022/07/15 20:58:53;;;;;;;7.60;1.98;;;;;;;11.24;86.95;96983.03;10413075;28;20684;-71
2022/07/15 21:03:54;;;;;;;4.18;2.05;;;;;;;11.19;87.51;96985.25;10412615;28;20319;-72
2022/07/15 21:08:54;;;;;;;4.77;1.50;;;;;;;11.25;87.58;96989.88;10412395;28;20209;-72
2022/07/15 21:13:54;;;;;;;5.73;1.80;;;;;;;11.27;87.59;96979.25;10413079;28;20920;-72
2022/07/15 21:18:55;;;;;;;5.37;1.80;;;;;;;11.15;88.32;96992.63;10412177;28;20711;-72
2022/07/15 21:23:55;;;;;;;3.70;1.67;;;;;;;11.16;87.57;96994.25;10412381;28;20653;-72
2022/07/15 21:28:56;;;;;;;4.53;1.87;;;;;;;11.18;88.47;96992.31;10411714;28;20262;-71
2022/07/15 21:33:56;;;;;;;5.67;1.53;;;;;;;11.24;86.87;96983.03;10411890;28;20192;-71
2022/07/15 21:38:57;;;;;;;4.23;2.00;;;;;;;11.12;88.25;96986.84;10411404;28;20221;-71
2022/07/15 21:43:57;;;;;;;2.43;1.60;;;;;;;11.15;87.70;96979.50;10411964;28;20198;-71
2022/07/15 21:48:58;;;;;;;4.27;1.77;;;;;;;11.05;88.28;96989.25;10410977;28;20300;-71
2022/07/15 21:53:58;;;;;;;2.28;1.70;;;;;;;11.05;89.10;96994.50;10411619;28;20192;-71
2022/07/15 21:58:58;;;;;;;4.20;1.70;;;;;;;10.96;90.47;96995.41;10410579;28;20220;-71
2022/07/15 22:03:59;;;;;;;3.20;1.60;;;;;;;10.86;89.88;96991.09;10410638;28;20312;-71
2022/07/15 22:08:59;;;;;;;3.60;2.13;;;;;;;10.80;90.92;96993.50;10410162;28;20220;-71
2022/07/15 22:14:00;;;;;;;6.17;1.90;;;;;;;10.63;92.21;96998.59;10391785;28;20192;-71
2022/07/15 22:19:00;;;;;;;2.33;1.50;;;;;;;10.54;93.29;97002.09;10410298;28;20219;-71
2022/07/15 22:24:01;;;;;;;3.17;1.50;;;;;;;10.59;92.88;96992.00;10409332;28;20199;-71
2022/07/15 22:29:02;;;;;;;6.23;2.27;;;;;;;10.55;94.08;96990.66;10409903;28;20284;-71
2022/07/15 22:34:03;;;;;;;8.53;1.77;;;;;;;10.60;94.18;97000.69;10408884;28;20758;-71
2022/07/15 22:39:03;;;;;;;3.23;1.70;;;;;;;10.57;94.57;96995.75;10408841;28;20216;-71
2022/07/15 22:44:05;;;;;;;2.83;1.50;;;;;;;10.47;95.06;96995.81;10409703;28;20277;-71
2022/07/15 22:49:05;;;;;;;5.20;1.90;;;;;;;10.44;95.44;96996.91;10408378;28;20537;-71
2022/07/15 22:54:05;;;;;;;4.00;1.80;;;;;;;10.49;95.14;96996.47;10409647;28;20275;-71
2022/07/15 22:59:06;;;;;;;6.80;2.10;;;;;;;10.35;96.32;97003.03;10408415;28;20219;-71
2022/07/15 23:04:06;;;;;;;4.37;1.80;;;;;;;10.35;97.04;97003.03;10408527;28;20251;-71
2022/07/15 23:09:06;;;;;;;4.03;2.03;;;;;;;10.30;97.52;97000.84;10408062;28;20200;-71
2022/07/15 23:14:07;;;;;;;3.30;1.90;;;;;;;10.20;98.01;96989.63;10408624;28;20565;-71
2022/07/15 23:19:07;;;;;;;3.73;1.83;;;;;;;10.14;99.04;97001.50;10407664;28;20239;-71
2022/07/15 23:24:07;;;;;;;5.50;1.73;;;;;;;10.18;98.16;97007.25;10408064;28;20200;-71
2022/07/15 23:29:08;;;;;;;3.73;1.83;;;;;;;10.10;99.23;97009.78;10408144;28;20189;-71
2022/07/15 23:34:08;;;;;;;8.77;1.60;;;;;;;10.03;100.00;97006.09;10407464;28;20193;-71
2022/07/15 23:39:09;;;;;;;3.03;1.60;;;;;;;9.83;100.00;97008.78;10407512;28;20223;-71
2022/07/15 23:44:09;;;;;;;3.10;1.60;;;;;;;9.67;100.00;97006.81;10407740;28;20313;-71